sensor_id;sensor_type;location;lat;lon;timestamp;temperature;humidity
3202;DHT22;34843;48.744;8.958;2023-01-31T00:00:49;2.00;99.90
3202;DHT22;34843;48.744;8.958;2023-01-31T00:03:14;1.90;99.90
3202;DHT22;34843;48.744;8.958;2023-01-31T00:05:40;1.80;99.90
3202;DHT22;34843;48.744;8.958;2023-01-31T00:08:05;1.70;99.90
3202;DHT22;34843;48.744;8.958;2023-01-31T00:10:31;1.60;99.90
3202;DHT22;34843;48.744;8.958;2023-01-31T00:12:57;1.60;99.90
3202;DHT22;34843;48.744;8.958;2023-01-31T00:15:22;1.50;99.90
3202;DHT22;34843;48.744;8.958;2023-01-31T00:17:48;1.60;99.90
3202;DHT22;34843;48.744;8.958;2023-01-31T00:20:13;1.60;99.90
3202;DHT22;34843;48.744;8.958;2023-01-31T00:22:39;1.70;99.90
3202;DHT22;34843;48.744;8.958;2023-01-31T00:25:05;1.70;99.90
3202;DHT22;34843;48.744;8.958;2023-01-31T00:27:31;1.70;99.90
3202;DHT22;34843;48.744;8.958;2023-01-31T00:29:56;1.80;99.90
3202;DHT22;34843;48.744;8.958;2023-01-31T00:32:22;1.70;99.90
3202;DHT22;34843;48.744;8.958;2023-01-31T00:34:50;1.60;99.90
3202;DHT22;34843;48.744;8.958;2023-01-31T00:37:15;1.60;99.90
3202;DHT22;34843;48.744;8.958;2023-01-31T00:39:41;1.50;99.90
3202;DHT22;34843;48.744;8.958;2023-01-31T00:42:06;1.50;99.90
3202;DHT22;34843;48.744;8.958;2023-01-31T00:44:32;1.40;99.90
3202;DHT22;34843;48.744;8.958;2023-01-31T00:46:57;1.30;99.90
3202;DHT22;34843;48.744;8.958;2023-01-31T00:49:22;1.20;99.90
3202;DHT22;34843;48.744;8.958;2023-01-31T00:51:48;1.20;99.90
3202;DHT22;34843;48.744;8.958;2023-01-31T00:54:13;1.10;99.90
3202;DHT22;34843;48.744;8.958;2023-01-31T00:56:39;1.00;99.90
3202;DHT22;34843;48.744;8.958;2023-01-31T00:59:04;1.00;99.90
3202;DHT22;34843;48.744;8.958;2023-01-31T01:01:33;0.90;99.90
3202;DHT22;34843;48.744;8.958;2023-01-31T01:03:59;0.90;99.90
3202;DHT22;34843;48.744;8.958;2023-01-31T01:06:26;0.90;99.90
3202;DHT22;34843;48.744;8.958;2023-01-31T01:08:52;0.80;99.90
3202;DHT22;34843;48.744;8.958;2023-01-31T01:11:21;0.80;99.90
3202;DHT22;34843;48.744;8.958;2023-01-31T01:13:47;0.80;99.90
3202;DHT22;34843;48.744;8.958;2023-01-31T01:16:16;0.80;99.90
3202;DHT22;34843;48.744;8.958;2023-01-31T01:18:42;0.70;99.90
3202;DHT22;34843;48.744;8.958;2023-01-31T01:21:13;0.80;99.90
3202;DHT22;34843;48.744;8.958;2023-01-31T01:23:39;0.70;99.90
3202;DHT22;34843;48.744;8.958;2023-01-31T01:26:12;0.70;99.90
3202;DHT22;34843;48.744;8.958;2023-01-31T01:28:38;0.70;99.90
3202;DHT22;34843;48.744;8.958;2023-01-31T01:31:05;0.80;99.90
3202;DHT22;34843;48.744;8.958;2023-01-31T01:33:31;0.80;99.90
3202;DHT22;34843;48.744;8.958;2023-01-31T01:36:05;0.70;99.90
3202;DHT22;34843;48.744;8.958;2023-01-31T01:38:34;0.70;99.90
3202;DHT22;34843;48.744;8.958;2023-01-31T01:41:00;0.80;99.90
3202;DHT22;34843;48.744;8.958;2023-01-31T01:43:58;0.90;99.90
3202;DHT22;34843;48.744;8.958;2023-01-31T01:46:40;0.90;99.90
3202;DHT22;34843;48.744;8.958;2023-01-31T01:49:17;1.00;99.90
3202;DHT22;34843;48.744;8.958;2023-01-31T01:51:45;0.90;99.90
3202;DHT22;34843;48.744;8.958;2023-01-31T01:54:16;0.90;99.90
3202;DHT22;34843;48.744;8.958;2023-01-31T01:56:45;0.90;99.90
3202;DHT22;34843;48.744;8.958;2023-01-31T01:59:25;0.80;99.90
3202;DHT22;34843;48.744;8.958;2023-01-31T02:01:54;0.80;99.90
3202;DHT22;34843;48.744;8.958;2023-01-31T02:04:23;0.70;99.90
3202;DHT22;34843;48.744;8.958;2023-01-31T02:06:50;0.70;99.90
3202;DHT22;34843;48.744;8.958;2023-01-31T02:09:28;0.60;99.90
3202;DHT22;34843;48.744;8.958;2023-01-31T02:11:56;0.60;99.90
3202;DHT22;34843;48.744;8.958;2023-01-31T02:14:22;0.60;99.90
3202;DHT22;34843;48.744;8.958;2023-01-31T02:16:48;0.50;99.90
3202;DHT22;34843;48.744;8.958;2023-01-31T02:19:23;0.50;99.90
3202;DHT22;34843;48.744;8.958;2023-01-31T02:29:52;0.40;99.90
3202;DHT22;34843;48.744;8.958;2023-01-31T02:32:39;0.30;99.90
3202;DHT22;34843;48.744;8.958;2023-01-31T02:35:37;0.30;99.90
3202;DHT22;34843;48.744;8.958;2023-01-31T02:38:11;0.30;99.90
3202;DHT22;34843;48.744;8.958;2023-01-31T02:43:38;0.10;99.90
3202;DHT22;34843;48.744;8.958;2023-01-31T02:46:41;0.10;99.90
3202;DHT22;34843;48.744;8.958;2023-01-31T02:49:21;0.00;99.90
3202;DHT22;34843;48.744;8.958;2023-01-31T02:52:07;0.00;99.90
3202;DHT22;34843;48.744;8.958;2023-01-31T02:54:43;0.00;99.90
3202;DHT22;34843;48.744;8.958;2023-01-31T02:57:30;0.00;99.90
3202;DHT22;34843;48.744;8.958;2023-01-31T02:59:55;0.00;99.90
3202;DHT22;34843;48.744;8.958;2023-01-31T03:02:22;0.00;99.90
3202;DHT22;34843;48.744;8.958;2023-01-31T03:04:48;0.10;99.90
3202;DHT22;34843;48.744;8.958;2023-01-31T03:07:16;0.10;99.90
3202;DHT22;34843;48.744;8.958;2023-01-31T03:15:37;0.20;99.90
3202;DHT22;34843;48.744;8.958;2023-01-31T03:18:29;0.30;99.90
3202;DHT22;34843;48.744;8.958;2023-01-31T03:21:02;0.30;99.90
3202;DHT22;34843;48.744;8.958;2023-01-31T03:23:32;0.40;99.90
3202;DHT22;34843;48.744;8.958;2023-01-31T03:26:02;0.50;99.90
3202;DHT22;34843;48.744;8.958;2023-01-31T03:28:31;0.50;99.90
3202;DHT22;34843;48.744;8.958;2023-01-31T03:33:29;0.70;99.90
3202;DHT22;34843;48.744;8.958;2023-01-31T03:41:39;0.60;99.90
3202;DHT22;34843;48.744;8.958;2023-01-31T03:44:23;0.60;99.90
3202;DHT22;34843;48.744;8.958;2023-01-31T03:46:54;0.50;99.90
3202;DHT22;34843;48.744;8.958;2023-01-31T03:49:21;0.40;99.90
3202;DHT22;34843;48.744;8.958;2023-01-31T03:51:53;0.40;99.90
3202;DHT22;34843;48.744;8.958;2023-01-31T03:54:28;0.40;99.90
3202;DHT22;34843;48.744;8.958;2023-01-31T03:57:10;0.30;99.90
3202;DHT22;34843;48.744;8.958;2023-01-31T03:59:39;0.30;99.90
3202;DHT22;34843;48.744;8.958;2023-01-31T04:02:09;0.30;99.90
3202;DHT22;34843;48.744;8.958;2023-01-31T04:04:52;0.20;99.90
3202;DHT22;34843;48.744;8.958;2023-01-31T04:07:20;0.20;99.90
3202;DHT22;34843;48.744;8.958;2023-01-31T04:09:46;0.20;99.90
3202;DHT22;34843;48.744;8.958;2023-01-31T04:12:13;0.20;99.90
3202;DHT22;34843;48.744;8.958;2023-01-31T04:14:39;0.20;99.90
3202;DHT22;34843;48.744;8.958;2023-01-31T04:17:05;0.10;99.90
3202;DHT22;34843;48.744;8.958;2023-01-31T04:19:30;0.10;99.90
3202;DHT22;34843;48.744;8.958;2023-01-31T04:21:56;0.10;99.90
3202;DHT22;34843;48.744;8.958;2023-01-31T04:24:22;0.00;99.90
3202;DHT22;34843;48.744;8.958;2023-01-31T04:26:47;0.00;99.90
3202;DHT22;34843;48.744;8.958;2023-01-31T04:29:13;-0.10;99.90
3202;DHT22;34843;48.744;8.958;2023-01-31T04:31:38;-0.10;99.90
3202;DHT22;34843;48.744;8.958;2023-01-31T04:34:05;-0.10;99.90
3202;DHT22;34843;48.744;8.958;2023-01-31T04:36:31;-0.20;99.90
3202;DHT22;34843;48.744;8.958;2023-01-31T04:38:56;-0.20;99.90
3202;DHT22;34843;48.744;8.958;2023-01-31T04:41:22;-0.30;99.90
3202;DHT22;34843;48.744;8.958;2023-01-31T04:43:47;-0.30;99.90
3202;DHT22;34843;48.744;8.958;2023-01-31T04:46:13;-0.30;99.90
3202;DHT22;34843;48.744;8.958;2023-01-31T04:48:38;-0.30;99.90
3202;DHT22;34843;48.744;8.958;2023-01-31T04:51:05;-0.30;99.90
3202;DHT22;34843;48.744;8.958;2023-01-31T04:53:31;-0.30;99.90
3202;DHT22;34843;48.744;8.958;2023-01-31T04:55:57;-0.20;99.90
3202;DHT22;34843;48.744;8.958;2023-01-31T04:58:22;-0.30;99.90
3202;DHT22;34843;48.744;8.958;2023-01-31T05:00:48;-0.30;99.90
3202;DHT22;34843;48.744;8.958;2023-01-31T05:03:13;-0.40;99.90
3202;DHT22;34843;48.744;8.958;2023-01-31T05:05:39;-0.40;99.90
3202;DHT22;34843;48.744;8.958;2023-01-31T05:08:05;-0.40;99.90
3202;DHT22;34843;48.744;8.958;2023-01-31T05:10:30;-0.40;99.90
3202;DHT22;34843;48.744;8.958;2023-01-31T05:12:56;-0.40;99.90
3202;DHT22;34843;48.744;8.958;2023-01-31T05:15:22;-0.40;99.90
3202;DHT22;34843;48.744;8.958;2023-01-31T05:17:51;-0.50;99.90
3202;DHT22;34843;48.744;8.958;2023-01-31T05:20:17;-0.50;99.90
3202;DHT22;34843;48.744;8.958;2023-01-31T05:22:46;-0.60;99.90
3202;DHT22;34843;48.744;8.958;2023-01-31T05:25:13;-0.60;99.90
3202;DHT22;34843;48.744;8.958;2023-01-31T05:27:38;-0.70;99.90
3202;DHT22;34843;48.744;8.958;2023-01-31T05:30:04;-0.90;99.90
3202;DHT22;34843;48.744;8.958;2023-01-31T05:32:30;-1.60;99.90
3202;DHT22;34843;48.744;8.958;2023-01-31T05:34:56;-1.00;99.90
3202;DHT22;34843;48.744;8.958;2023-01-31T05:37:21;-1.20;99.90
3202;DHT22;34843;48.744;8.958;2023-01-31T05:39:47;-1.20;99.90
3202;DHT22;34843;48.744;8.958;2023-01-31T05:42:12;-1.20;99.90
3202;DHT22;34843;48.744;8.958;2023-01-31T05:44:38;-1.30;99.90
3202;DHT22;34843;48.744;8.958;2023-01-31T05:47:03;-1.40;99.90
3202;DHT22;34843;48.744;8.958;2023-01-31T05:49:29;-1.40;99.90
3202;DHT22;34843;48.744;8.958;2023-01-31T05:51:58;-1.40;99.90
3202;DHT22;34843;48.744;8.958;2023-01-31T05:54:23;-1.40;99.90
3202;DHT22;34843;48.744;8.958;2023-01-31T05:56:49;-1.50;99.90
3202;DHT22;34843;48.744;8.958;2023-01-31T05:59:14;-1.50;99.90
3202;DHT22;34843;48.744;8.958;2023-01-31T06:01:40;-1.50;99.90
3202;DHT22;34843;48.744;8.958;2023-01-31T06:04:05;-1.60;99.90
3202;DHT22;34843;48.744;8.958;2023-01-31T06:06:31;-1.60;99.90
3202;DHT22;34843;48.744;8.958;2023-01-31T06:08:56;-1.70;99.90
3202;DHT22;34843;48.744;8.958;2023-01-31T06:11:22;-1.60;99.90
3202;DHT22;34843;48.744;8.958;2023-01-31T06:13:49;-1.60;99.90
3202;DHT22;34843;48.744;8.958;2023-01-31T06:16:15;-1.60;99.90
3202;DHT22;34843;48.744;8.958;2023-01-31T06:18:46;-1.70;99.90
3202;DHT22;34843;48.744;8.958;2023-01-31T06:21:12;-1.70;99.90
3202;DHT22;34843;48.744;8.958;2023-01-31T06:23:37;-1.70;99.90
3202;DHT22;34843;48.744;8.958;2023-01-31T06:26:03;-1.70;99.90
3202;DHT22;34843;48.744;8.958;2023-01-31T06:28:28;-1.70;99.90
3202;DHT22;34843;48.744;8.958;2023-01-31T06:30:54;-1.70;99.90
3202;DHT22;34843;48.744;8.958;2023-01-31T06:33:19;-1.70;99.90
3202;DHT22;34843;48.744;8.958;2023-01-31T06:35:45;-1.60;99.90
3202;DHT22;34843;48.744;8.958;2023-01-31T06:38:10;-1.70;99.90
3202;DHT22;34843;48.744;8.958;2023-01-31T06:40:40;-1.60;99.90
3202;DHT22;34843;48.744;8.958;2023-01-31T06:43:06;-1.50;99.90
3202;DHT22;34843;48.744;8.958;2023-01-31T06:45:31;-1.50;99.90
3202;DHT22;34843;48.744;8.958;2023-01-31T06:47:57;-1.50;99.90
3202;DHT22;34843;48.744;8.958;2023-01-31T06:50:22;-1.50;99.90
3202;DHT22;34843;48.744;8.958;2023-01-31T06:52:48;-1.50;99.90
3202;DHT22;34843;48.744;8.958;2023-01-31T06:55:13;-1.00;99.90
3202;DHT22;34843;48.744;8.958;2023-01-31T06:57:48;-1.40;99.90
3202;DHT22;34843;48.744;8.958;2023-01-31T07:00:15;-1.20;99.90
3202;DHT22;34843;48.744;8.958;2023-01-31T07:02:42;-1.40;99.90
3202;DHT22;34843;48.744;8.958;2023-01-31T07:05:08;-1.30;99.90
3202;DHT22;34843;48.744;8.958;2023-01-31T07:07:34;-1.30;99.90
3202;DHT22;34843;48.744;8.958;2023-01-31T07:09:59;-1.20;99.90
3202;DHT22;34843;48.744;8.958;2023-01-31T07:12:25;-1.20;99.90
3202;DHT22;34843;48.744;8.958;2023-01-31T07:14:51;-1.20;99.90
3202;DHT22;34843;48.744;8.958;2023-01-31T07:17:17;-1.20;99.90
3202;DHT22;34843;48.744;8.958;2023-01-31T07:19:42;-1.10;99.90
3202;DHT22;34843;48.744;8.958;2023-01-31T07:22:08;-1.00;99.90
3202;DHT22;34843;48.744;8.958;2023-01-31T07:24:33;-1.00;99.90
3202;DHT22;34843;48.744;8.958;2023-01-31T07:26:59;-0.90;99.90
3202;DHT22;34843;48.744;8.958;2023-01-31T07:29:25;-0.90;99.90
3202;DHT22;34843;48.744;8.958;2023-01-31T07:31:51;-0.80;99.90
3202;DHT22;34843;48.744;8.958;2023-01-31T07:34:18;-0.70;99.90
3202;DHT22;34843;48.744;8.958;2023-01-31T07:36:45;-0.60;99.90
3202;DHT22;34843;48.744;8.958;2023-01-31T07:39:11;-0.60;99.90
3202;DHT22;34843;48.744;8.958;2023-01-31T07:41:37;-0.50;99.90
3202;DHT22;34843;48.744;8.958;2023-01-31T07:44:03;-0.50;99.90
3202;DHT22;34843;48.744;8.958;2023-01-31T07:46:29;-0.40;99.90
3202;DHT22;34843;48.744;8.958;2023-01-31T07:48:55;-0.30;99.90
3202;DHT22;34843;48.744;8.958;2023-01-31T07:51:20;-0.20;99.90
3202;DHT22;34843;48.744;8.958;2023-01-31T07:53:46;-0.20;99.90
3202;DHT22;34843;48.744;8.958;2023-01-31T07:56:13;0.00;99.90
3202;DHT22;34843;48.744;8.958;2023-01-31T07:58:40;0.00;99.90
3202;DHT22;34843;48.744;8.958;2023-01-31T08:01:08;0.10;99.90
3202;DHT22;34843;48.744;8.958;2023-01-31T08:03:52;0.20;99.90
3202;DHT22;34843;48.744;8.958;2023-01-31T08:06:18;0.30;99.90
3202;DHT22;34843;48.744;8.958;2023-01-31T08:08:44;0.40;99.90
3202;DHT22;34843;48.744;8.958;2023-01-31T08:11:10;0.50;99.90
3202;DHT22;34843;48.744;8.958;2023-01-31T08:13:37;0.60;99.90
3202;DHT22;34843;48.744;8.958;2023-01-31T08:16:05;0.70;99.90
3202;DHT22;34843;48.744;8.958;2023-01-31T08:18:32;0.80;99.90
3202;DHT22;34843;48.744;8.958;2023-01-31T08:20:58;0.90;99.90
3202;DHT22;34843;48.744;8.958;2023-01-31T08:23:24;1.10;99.90
3202;DHT22;34843;48.744;8.958;2023-01-31T08:25:49;1.30;99.90
3202;DHT22;34843;48.744;8.958;2023-01-31T08:28:15;1.60;99.90
3202;DHT22;34843;48.744;8.958;2023-01-31T08:30:44;1.80;99.90
3202;DHT22;34843;48.744;8.958;2023-01-31T08:33:10;2.10;99.90
3202;DHT22;34843;48.744;8.958;2023-01-31T08:35:36;2.20;99.90
3202;DHT22;34843;48.744;8.958;2023-01-31T08:38:02;2.50;99.90
3202;DHT22;34843;48.744;8.958;2023-01-31T08:40:28;2.70;99.90
3202;DHT22;34843;48.744;8.958;2023-01-31T08:42:55;2.90;99.90
3202;DHT22;34843;48.744;8.958;2023-01-31T08:45:21;3.10;99.90
3202;DHT22;34843;48.744;8.958;2023-01-31T08:47:47;3.40;99.90
3202;DHT22;34843;48.744;8.958;2023-01-31T08:50:13;3.60;99.90
3202;DHT22;34843;48.744;8.958;2023-01-31T08:52:38;3.80;99.90
3202;DHT22;34843;48.744;8.958;2023-01-31T08:55:04;4.00;99.90
3202;DHT22;34843;48.744;8.958;2023-01-31T08:57:30;4.20;99.90
3202;DHT22;34843;48.744;8.958;2023-01-31T08:59:56;4.50;99.90
3202;DHT22;34843;48.744;8.958;2023-01-31T09:02:22;4.70;99.90
3202;DHT22;34843;48.744;8.958;2023-01-31T09:04:47;4.70;99.90
3202;DHT22;34843;48.744;8.958;2023-01-31T09:07:13;4.70;99.90
3202;DHT22;34843;48.744;8.958;2023-01-31T09:09:39;5.00;99.90
3202;DHT22;34843;48.744;8.958;2023-01-31T09:12:05;4.70;99.90
3202;DHT22;34843;48.744;8.958;2023-01-31T09:14:30;4.60;99.90
3202;DHT22;34843;48.744;8.958;2023-01-31T09:16:56;4.60;99.90
3202;DHT22;34843;48.744;8.958;2023-01-31T09:19:21;4.70;99.90
3202;DHT22;34843;48.744;8.958;2023-01-31T09:21:48;4.80;99.90
3202;DHT22;34843;48.744;8.958;2023-01-31T09:24:13;4.80;99.90
3202;DHT22;34843;48.744;8.958;2023-01-31T09:26:39;4.90;99.90
3202;DHT22;34843;48.744;8.958;2023-01-31T09:29:04;4.90;99.90
3202;DHT22;34843;48.744;8.958;2023-01-31T09:31:30;5.00;99.90
3202;DHT22;34843;48.744;8.958;2023-01-31T09:33:56;5.20;99.90
3202;DHT22;34843;48.744;8.958;2023-01-31T09:36:22;5.30;99.90
3202;DHT22;34843;48.744;8.958;2023-01-31T09:38:53;5.40;99.90
3202;DHT22;34843;48.744;8.958;2023-01-31T09:44:23;5.30;99.90
3202;DHT22;34843;48.744;8.958;2023-01-31T09:47:10;5.30;99.90
3202;DHT22;34843;48.744;8.958;2023-01-31T09:49:50;5.40;99.90
3202;DHT22;34843;48.744;8.958;2023-01-31T09:52:17;5.30;99.90
3202;DHT22;34843;48.744;8.958;2023-01-31T09:54:43;5.20;99.90
3202;DHT22;34843;48.744;8.958;2023-01-31T10:05:51;5.10;99.90
3202;DHT22;34843;48.744;8.958;2023-01-31T10:08:46;5.20;99.90
3202;DHT22;34843;48.744;8.958;2023-01-31T10:11:42;5.30;99.90
3202;DHT22;34843;48.744;8.958;2023-01-31T10:14:25;5.20;99.90
3202;DHT22;34843;48.744;8.958;2023-01-31T10:17:45;5.20;99.90
3202;DHT22;34843;48.744;8.958;2023-01-31T10:20:05;5.20;99.90
3202;DHT22;34843;48.744;8.958;2023-01-31T10:22:44;5.10;99.90
3202;DHT22;34843;48.744;8.958;2023-01-31T10:28:02;4.90;99.90
3202;DHT22;34843;48.744;8.958;2023-01-31T10:36:27;4.80;99.90
3202;DHT22;34843;48.744;8.958;2023-01-31T10:38:58;5.10;99.90
3202;DHT22;34843;48.744;8.958;2023-01-31T10:47:15;6.20;99.90
3202;DHT22;34843;48.744;8.958;2023-01-31T10:49:44;5.80;99.90
3202;DHT22;34843;48.744;8.958;2023-01-31T10:57:52;6.30;99.90
3202;DHT22;34843;48.744;8.958;2023-01-31T11:00:28;6.30;99.90
3202;DHT22;34843;48.744;8.958;2023-01-31T11:02:55;6.40;99.90
3202;DHT22;34843;48.744;8.958;2023-01-31T11:05:23;6.70;99.90
3202;DHT22;34843;48.744;8.958;2023-01-31T11:07:49;6.90;99.90
3202;DHT22;34843;48.744;8.958;2023-01-31T11:10:27;6.90;99.90
3202;DHT22;34843;48.744;8.958;2023-01-31T11:13:02;7.00;99.90
3202;DHT22;34843;48.744;8.958;2023-01-31T11:15:36;7.00;99.90
3202;DHT22;34843;48.744;8.958;2023-01-31T11:18:03;6.80;99.90
3202;DHT22;34843;48.744;8.958;2023-01-31T11:20:43;6.40;99.90
3202;DHT22;34843;48.744;8.958;2023-01-31T11:23:15;6.20;99.90
3202;DHT22;34843;48.744;8.958;2023-01-31T11:25:49;6.20;99.90
3202;DHT22;34843;48.744;8.958;2023-01-31T11:28:34;6.30;99.90
3202;DHT22;34843;48.744;8.958;2023-01-31T11:31:01;5.90;99.90
3202;DHT22;34843;48.744;8.958;2023-01-31T11:33:43;5.80;99.90
3202;DHT22;34843;48.744;8.958;2023-01-31T11:36:15;5.60;99.90
3202;DHT22;34843;48.744;8.958;2023-01-31T11:38:41;5.60;99.90
3202;DHT22;34843;48.744;8.958;2023-01-31T11:41:26;5.80;99.90
3202;DHT22;34843;48.744;8.958;2023-01-31T11:44:15;6.00;99.90
3202;DHT22;34843;48.744;8.958;2023-01-31T11:47:02;6.20;99.90
3202;DHT22;34843;48.744;8.958;2023-01-31T11:52:00;6.50;99.90
3202;DHT22;34843;48.744;8.958;2023-01-31T11:54:29;6.50;99.90
3202;DHT22;34843;48.744;8.958;2023-01-31T11:56:57;6.40;99.90
3202;DHT22;34843;48.744;8.958;2023-01-31T11:59:26;6.30;99.90
3202;DHT22;34843;48.744;8.958;2023-01-31T12:01:56;5.90;99.90
3202;DHT22;34843;48.744;8.958;2023-01-31T12:04:25;5.50;99.90
3202;DHT22;34843;48.744;8.958;2023-01-31T12:07:04;5.20;99.90
3202;DHT22;34843;48.744;8.958;2023-01-31T12:09:40;5.10;99.90
3202;DHT22;34843;48.744;8.958;2023-01-31T12:12:33;5.00;99.90
3202;DHT22;34843;48.744;8.958;2023-01-31T12:15:01;4.90;99.90
3202;DHT22;34843;48.744;8.958;2023-01-31T12:17:28;4.80;99.90
3202;DHT22;34843;48.744;8.958;2023-01-31T12:22:58;5.10;99.90
3202;DHT22;34843;48.744;8.958;2023-01-31T12:30:51;5.10;99.90
3202;DHT22;34843;48.744;8.958;2023-01-31T13:00:32;4.50;99.90
3202;DHT22;34843;48.744;8.958;2023-01-31T13:09:21;4.70;99.90
3202;DHT22;34843;48.744;8.958;2023-01-31T13:12:05;4.80;99.90
3202;DHT22;34843;48.744;8.958;2023-01-31T13:14:38;4.90;99.90
3202;DHT22;34843;48.744;8.958;2023-01-31T13:17:07;4.80;99.90
3202;DHT22;34843;48.744;8.958;2023-01-31T13:19:50;4.80;99.90
3202;DHT22;34843;48.744;8.958;2023-01-31T13:22:24;4.80;99.90
3202;DHT22;34843;48.744;8.958;2023-01-31T13:25:05;4.70;99.90
3202;DHT22;34843;48.744;8.958;2023-01-31T13:27:39;4.80;99.90
3202;DHT22;34843;48.744;8.958;2023-01-31T13:30:18;4.80;99.90
3202;DHT22;34843;48.744;8.958;2023-01-31T13:32:48;4.80;99.90
3202;DHT22;34843;48.744;8.958;2023-01-31T13:35:27;4.90;99.90
3202;DHT22;34843;48.744;8.958;2023-01-31T13:37:59;4.90;99.90
3202;DHT22;34843;48.744;8.958;2023-01-31T13:40:33;5.00;99.90
3202;DHT22;34843;48.744;8.958;2023-01-31T13:43:05;5.00;99.90
3202;DHT22;34843;48.744;8.958;2023-01-31T13:45:35;5.00;99.90
3202;DHT22;34843;48.744;8.958;2023-01-31T13:48:09;5.00;99.90
3202;DHT22;34843;48.744;8.958;2023-01-31T13:50:45;5.10;99.90
3202;DHT22;34843;48.744;8.958;2023-01-31T13:53:23;5.10;99.90
3202;DHT22;34843;48.744;8.958;2023-01-31T13:55:51;5.20;99.90
3202;DHT22;34843;48.744;8.958;2023-01-31T13:58:30;5.20;99.90
3202;DHT22;34843;48.744;8.958;2023-01-31T14:01:18;5.20;99.90
3202;DHT22;34843;48.744;8.958;2023-01-31T14:09:27;5.10;99.90
3202;DHT22;34843;48.744;8.958;2023-01-31T14:11:58;5.00;99.90
3202;DHT22;34843;48.744;8.958;2023-01-31T14:17:06;5.10;99.90
3202;DHT22;34843;48.744;8.958;2023-01-31T14:22:18;5.10;99.90
3202;DHT22;34843;48.744;8.958;2023-01-31T14:27:25;5.20;99.90
3202;DHT22;34843;48.744;8.958;2023-01-31T14:33:07;5.30;99.90
3202;DHT22;34843;48.744;8.958;2023-01-31T14:36:12;5.40;99.90
3202;DHT22;34843;48.744;8.958;2023-01-31T14:47:16;5.50;99.90
3202;DHT22;34843;48.744;8.958;2023-01-31T14:57:59;5.50;99.90
3202;DHT22;34843;48.744;8.958;2023-01-31T15:00:32;5.40;99.90
3202;DHT22;34843;48.744;8.958;2023-01-31T15:03:06;5.30;99.90
3202;DHT22;34843;48.744;8.958;2023-01-31T15:10:53;5.20;99.90
3202;DHT22;34843;48.744;8.958;2023-01-31T15:13:48;5.30;99.90
3202;DHT22;34843;48.744;8.958;2023-01-31T15:16:23;5.20;99.90
3202;DHT22;34843;48.744;8.958;2023-01-31T15:19:11;5.10;99.90
3202;DHT22;34843;48.744;8.958;2023-01-31T15:21:44;5.10;99.90
3202;DHT22;34843;48.744;8.958;2023-01-31T15:24:21;5.00;99.90
3202;DHT22;34843;48.744;8.958;2023-01-31T15:26:49;4.90;99.90
3202;DHT22;34843;48.744;8.958;2023-01-31T15:29:22;4.80;99.90
3202;DHT22;34843;48.744;8.958;2023-01-31T15:31:52;4.80;99.90
3202;DHT22;34843;48.744;8.958;2023-01-31T15:34:29;4.90;99.90
3202;DHT22;34843;48.744;8.958;2023-01-31T15:39:29;5.00;99.90
3202;DHT22;34843;48.744;8.958;2023-01-31T15:41:56;5.00;99.90
3202;DHT22;34843;48.744;8.958;2023-01-31T15:44:24;5.00;99.90
3202;DHT22;34843;48.744;8.958;2023-01-31T15:46:52;5.00;99.90
3202;DHT22;34843;48.744;8.958;2023-01-31T15:49:30;5.00;99.90
3202;DHT22;34843;48.744;8.958;2023-01-31T15:52:15;5.00;99.90
3202;DHT22;34843;48.744;8.958;2023-01-31T15:55:11;5.00;99.90
3202;DHT22;34843;48.744;8.958;2023-01-31T15:57:41;4.90;99.90
3202;DHT22;34843;48.744;8.958;2023-01-31T16:00:33;4.90;99.90
3202;DHT22;34843;48.744;8.958;2023-01-31T16:02:59;4.70;99.90
3202;DHT22;34843;48.744;8.958;2023-01-31T16:05:31;4.70;99.90
3202;DHT22;34843;48.744;8.958;2023-01-31T16:08:02;4.70;99.90
3202;DHT22;34843;48.744;8.958;2023-01-31T16:10:29;4.60;99.90
3202;DHT22;34843;48.744;8.958;2023-01-31T16:12:57;4.60;99.90
3202;DHT22;34843;48.744;8.958;2023-01-31T16:15:24;4.50;99.90
3202;DHT22;34843;48.744;8.958;2023-01-31T16:17:52;4.40;99.90
3202;DHT22;34843;48.744;8.958;2023-01-31T16:28:22;4.30;99.90
3202;DHT22;34843;48.744;8.958;2023-01-31T16:30:49;4.20;99.90
3202;DHT22;34843;48.744;8.958;2023-01-31T16:33:16;4.20;99.90
3202;DHT22;34843;48.744;8.958;2023-01-31T16:35:42;4.10;99.90
3202;DHT22;34843;48.744;8.958;2023-01-31T16:38:24;4.20;99.90
3202;DHT22;34843;48.744;8.958;2023-01-31T16:40:55;4.10;99.90
3202;DHT22;34843;48.744;8.958;2023-01-31T16:43:30;4.10;99.90
3202;DHT22;34843;48.744;8.958;2023-01-31T16:46:02;4.10;99.90
3202;DHT22;34843;48.744;8.958;2023-01-31T16:48:35;4.00;99.90
3202;DHT22;34843;48.744;8.958;2023-01-31T16:56:32;3.90;99.90
3202;DHT22;34843;48.744;8.958;2023-01-31T16:58:57;4.00;99.90
3202;DHT22;34843;48.744;8.958;2023-01-31T17:01:29;4.00;99.90
3202;DHT22;34843;48.744;8.958;2023-01-31T17:04:05;3.90;99.90
3202;DHT22;34843;48.744;8.958;2023-01-31T17:06:37;4.00;99.90
3202;DHT22;34843;48.744;8.958;2023-01-31T17:09:06;3.90;99.90
3202;DHT22;34843;48.744;8.958;2023-01-31T17:11:32;3.90;99.90
3202;DHT22;34843;48.744;8.958;2023-01-31T17:13:58;3.90;99.90
3202;DHT22;34843;48.744;8.958;2023-01-31T17:16:24;3.90;99.90
3202;DHT22;34843;48.744;8.958;2023-01-31T17:18:51;3.90;99.90
3202;DHT22;34843;48.744;8.958;2023-01-31T17:21:17;3.70;99.90
3202;DHT22;34843;48.744;8.958;2023-01-31T17:23:43;3.90;99.90
3202;DHT22;34843;48.744;8.958;2023-01-31T17:26:15;3.90;99.90
3202;DHT22;34843;48.744;8.958;2023-01-31T17:28:41;3.90;99.90
3202;DHT22;34843;48.744;8.958;2023-01-31T17:31:14;3.90;99.90
3202;DHT22;34843;48.744;8.958;2023-01-31T17:33:40;3.90;99.90
3202;DHT22;34843;48.744;8.958;2023-01-31T17:36:07;3.90;99.90
3202;DHT22;34843;48.744;8.958;2023-01-31T17:38:34;3.90;99.90
3202;DHT22;34843;48.744;8.958;2023-01-31T17:41:00;3.90;99.90
3202;DHT22;34843;48.744;8.958;2023-01-31T17:43:25;3.90;99.90
3202;DHT22;34843;48.744;8.958;2023-01-31T17:45:51;3.90;99.90
3202;DHT22;34843;48.744;8.958;2023-01-31T17:48:17;3.90;99.90
3202;DHT22;34843;48.744;8.958;2023-01-31T17:50:43;3.90;99.90
3202;DHT22;34843;48.744;8.958;2023-01-31T17:53:14;4.00;99.90
3202;DHT22;34843;48.744;8.958;2023-01-31T17:55:41;4.00;99.90
3202;DHT22;34843;48.744;8.958;2023-01-31T17:58:14;4.00;99.90
3202;DHT22;34843;48.744;8.958;2023-01-31T18:00:43;4.00;99.90
3202;DHT22;34843;48.744;8.958;2023-01-31T18:03:21;4.00;99.90
3202;DHT22;34843;48.744;8.958;2023-01-31T18:05:47;4.00;99.90
3202;DHT22;34843;48.744;8.958;2023-01-31T18:08:13;4.10;99.90
3202;DHT22;34843;48.744;8.958;2023-01-31T18:10:40;4.60;99.90
3202;DHT22;34843;48.744;8.958;2023-01-31T18:13:05;5.90;99.90
3202;DHT22;34843;48.744;8.958;2023-01-31T18:15:31;4.10;99.90
3202;DHT22;34843;48.744;8.958;2023-01-31T18:17:58;4.10;99.90
3202;DHT22;34843;48.744;8.958;2023-01-31T18:20:23;4.10;99.90
3202;DHT22;34843;48.744;8.958;2023-01-31T18:22:49;4.00;99.90
3202;DHT22;34843;48.744;8.958;2023-01-31T18:25:14;4.00;99.90
3202;DHT22;34843;48.744;8.958;2023-01-31T18:27:40;3.90;99.90
3202;DHT22;34843;48.744;8.958;2023-01-31T18:30:06;3.90;99.90
3202;DHT22;34843;48.744;8.958;2023-01-31T18:32:32;3.90;99.90
3202;DHT22;34843;48.744;8.958;2023-01-31T18:34:58;3.90;99.90
3202;DHT22;34843;48.744;8.958;2023-01-31T18:37:23;3.80;99.90
3202;DHT22;34843;48.744;8.958;2023-01-31T18:39:52;3.80;99.90
3202;DHT22;34843;48.744;8.958;2023-01-31T18:42:19;3.80;99.90
3202;DHT22;34843;48.744;8.958;2023-01-31T18:44:45;3.80;99.90
3202;DHT22;34843;48.744;8.958;2023-01-31T18:47:14;3.80;99.90
3202;DHT22;34843;48.744;8.958;2023-01-31T18:49:40;3.80;99.90